Tiempo atmosférico en la estación meteorológica de San Andrés y Sauces, Santa Cruz de Tenerife (362 m.)



Fecha
DESCASC
Temp. máxima en grados centígrados (hora)
DESCASC
Temp. mínima en grados centígrados (hora)
DESCASC
Temp. media en grados centígrados
DESCASC
Racha de viento máxima en m/sg (hora)
DESCASC
Velocidad máxima media en intervalos de 10 minutos(hora)
DESCASC
Precipitaciones diarias en mm
DESCASC
Precipitaciones de 00:00 a 06:00 en mm
DESCASC
Precipitaciones de 06:00 a 12:00 en mm
DESCASC
Precipitaciones de 12:00 a 18:00 en mm
DESCASC
Precipitaciones de 18:00 a 24:00 en mm
DESCASC
11-08-2020 26 (12:50) 18.6 (03:20) 22.3 7.78 (14:30) 4.44 (12:50) 0 0 0 0 0
10-08-2020 25.6 (15:00) 19 (07:30) 22.3 6.94 (13:40) 4.17 (21:50) 2.4 0.2 2.2 0 0
09-08-2020 26 (13:50) 19.8 (07:40) 22.9 7.78 (14:50) 5 (14:50) 0 0 0 0 0
08-08-2020 27.3 (14:00) 18.7 (08:10) 23 7.78 (19:00) 4.44 (04:00) 0 0 0 0 0
07-08-2020 26 (14:30) 19.3 (00:00) 22.6 6.67 (14:50) 4.17 (23:59) 0 0 0 0 0
06-08-2020 25.1 (13:50) 19.2 (03:20) 22.2 6.39 (14:30) 4.17 (14:40) 0 0 0 0 0
05-08-2020 25.2 (15:00) 18.4 (00:00) 21.8 6.39 (14:40) 3.89 (16:00) 0 0 0 0 0
04-08-2020 25.6 (15:50) 17.3 (03:20) 21.4 6.39 (15:00) 4.17 (06:40) 0.4 0 0.4 0 0
03-08-2020 24.1 (13:00) 17.9 (23:59) 21 6.11 (13:10) 4.17 (13:10) 0 0 0 0 0
02-08-2020 25.5 (13:40) 18.9 (02:10) 22.2 6.11 (18:10) 3.61 (13:50) 0 0 0 0 0
01-08-2020 22.5 (14:50) 18.6 (00:00) 20.6 5.56 (14:10) 3.33 (11:10) 0 0 0 0 0
31-07-2020 22.2 (12:30) 18.4 (05:20) 20.3 6.94 (14:40) 4.17 (10:50) 0 0 0 0 0
30-07-2020 24.5 (12:50) 17.9 (00:00) 21.2 7.5 (13:50) 4.72 (13:40) 2.2 2.2 0 0 0
29-07-2020 26.5 (13:10) 18.7 (00:00) 22.6 8.89 (12:50) 5.56 (13:50) 0 0 0 0 0
28-07-2020 25.2 (14:30) 18.7 (07:20) 22 8.06 (13:30) 5 (14:30) 0 0 0 0 0
27-07-2020 24.8 (12:00) 17.5 (00:00) 21.1 8.33 (14:20) 5.28 (12:10) 0 0 0 0 0
26-07-2020 25.7 (16:00) 18.2 (00:00) 22 7.5 (13:30) 4.44 (12:40) 0 0 0 0 0
25-07-2020 25.2 (13:40) 16.6 (06:10) 20.9 5.83 (17:40) 3.89 (16:00) 0 0 0 0 0
24-07-2020 24.5 (14:50) 17.5 (00:00) 21 7.22 (13:30) 3.89 (13:30) 0 0 0 0 0
23-07-2020 24.2 (15:30) 17.7 (00:00) 21 6.39 (16:30) 4.17 (16:30) 0 0 0 0 0
22-07-2020 25.1 (14:00) 18.6 (23:20) 21.9 7.78 (16:20) 5.28 (15:50) 0 0 0 0 0
21-07-2020 24.7 (15:40) 18.4 (00:00) 21.6 7.5 (15:10) 5 (15:10) 0 0 0 0 0
20-07-2020 25.2 (12:40) 19 (06:40) 22.1 6.94 (16:20) 3.89 (12:40) 0 0 0 0 0
19-07-2020 28.5 (13:40) 19.2 (00:00) 23.9 5 (13:00) 3.33 (18:30) 0 0 0 0 0
18-07-2020 25.6 (13:50) 18.1 (00:00) 21.9 4.72 (14:50) 3.06 (14:50) 0 0 0 0 0
17-07-2020 23.8 (15:10) 17.8 (00:00) 20.8 6.67 (14:30) 3.89 (14:20) 0 0 0 0 0
16-07-2020 23.9 (14:10) 17.9 (00:00) 20.9 6.11 (15:50) 3.61 (13:50) 0 0 0 0 0
15-07-2020 24.7 (16:40) 17.9 (08:00) 21.3 7.5 (14:40) 4.72 (16:00) 0 0 0 0 0

Gráficas

Temp. máximas Temp. mínimas Temp. medias Precipitaciones Rachas de viento máximas Velocidades máximas media en intervalos de 10 minutos

Datos horarios

Fecha y hora oficial Temperatura (ºC) Velocidad del viento (km/h) Dirección del viento Racha (km/h) Dirección de racha Precipitación (mm) Presión (hPa) Tendencia (hPa) Humedad (%)
2020-08-13 23:00:00 19.8 9 Sur 22 Sudoeste 0 -- -- 81
2020-08-13 22:00:00 19.8 5 Sur 13 Sudoeste 0 -- -- 81
2020-08-13 21:00:00 20.3 10 Sudoeste 17 Sudoeste 0 -- -- 76
2020-08-13 20:00:00 20.8 14 Sudoeste 19 Sudoeste 0 -- -- 74
2020-08-13 19:00:00 21.9 8 Este 23 Este 0 -- -- 74
2020-08-13 18:00:00 24.2 15 Este 27 Este 0 -- -- 67
2020-08-13 17:00:00 22.9 17 Este 26 Este 0 -- -- 69
2020-08-13 16:00:00 25.1 18 Este 28 Este 0 -- -- 62
2020-08-13 15:00:00 25 14 Este 35 Este 0 -- -- 63
2020-08-13 14:00:00 24.4 14 Este 31 Este 0 -- -- 64
2020-08-13 13:00:00 24.2 15 Este 31 Este 0 -- -- 66
2020-08-13 12:00:00 25.6 17 Este 28 Este 0 -- -- 61
2020-08-13 11:00:00 22.7 14 Este 23 Este 0.2 -- -- 75
2020-08-13 10:00:00 20.7 8 Sudeste 20 Este 0 -- -- 82
2020-08-13 09:00:00 19.9 5 Este 14 Oeste 0 -- -- 85
2020-08-13 08:00:00 19.2 9 Sudoeste 13 Sudoeste 0 -- -- 85
2020-08-13 07:00:00 19.2 6 Sudeste 14 Sudoeste 0 -- -- 90
2020-08-13 06:00:00 19.2 5 Sur 12 Este 0 -- -- 89
2020-08-13 05:00:00 19.3 4 Sudeste 14 Sudeste 0 -- -- 89
2020-08-13 04:00:00 19.2 5 Este 19 Sudoeste 0 -- -- 88
2020-08-13 03:00:00 19.2 8 Sudoeste 13 Sudoeste 0 -- -- 89
2020-08-13 02:00:00 19.4 7 Sudeste 14 Sudeste 0 -- -- 88
2020-08-13 01:00:00 19.6 8 Sudeste 22 Este 0 -- -- 88
2020-08-13 00:00:00 20 9 Este 15 Este 0 -- -- 89
2020-08-12 23:00:00 20 7 Sudeste 22 Este 0 -- -- 89
2020-08-12 22:00:00 20.2 13 Este 19 Este 0 -- -- 90
2020-08-12 21:00:00 20.5 10 Este 13 Este 0 -- -- 87
2020-08-12 20:00:00 21 11 Este 19 Este 0 -- -- 83
2020-08-12 19:00:00 21.6 14 Este 24 Este 0 -- -- 83
2020-08-12 18:00:00 23.1 11 Este 21 Este 0 -- -- 77
2020-08-12 17:00:00 24.3 9 Este 23 Este 0 -- -- 67
2020-08-12 16:00:00 23.4 17 Este 26 Este 0 -- -- 76
2020-08-12 15:00:00 24.2 19 Este 27 Este 0 -- -- 72
2020-08-12 14:00:00 24.5 14 Este 28 Nordeste 0 -- -- 69
2020-08-12 13:00:00 23.5 14 Este 26 Este 0 -- -- 72
2020-08-12 12:00:00 23.2 19 Este 26 Este 0 -- -- 75
2020-08-12 11:00:00 24.2 14 Este 24 Este 0 -- -- 72
2020-08-12 10:00:00 22.1 9 Este 20 Nordeste 0 -- -- 79
2020-08-12 09:00:00 20.1 5 Sur 14 Sudoeste 0 -- -- 86
2020-08-12 08:00:00 19.4 8 Sudoeste 17 Este 0.2 -- -- 90
2020-08-12 07:00:00 19.7 7 Sur 24 Sudoeste 0 -- -- 82
2020-08-12 06:00:00 19.7 8 Sudeste 32 Sudoeste 0 -- -- 86
2020-08-12 05:00:00 20 11 Sudoeste 18 Sudoeste 0 -- -- 81
2020-08-12 04:00:00 19.9 9 Sudoeste 21 Sudeste 0 -- -- 80
2020-08-12 03:00:00 20.1 6 Sudeste 22 Sudoeste 0 -- -- 80
2020-08-12 02:00:00 20.1 9 Sudoeste 23 Sudoeste 0 -- -- 76
2020-08-12 01:00:00 20.3 10 Sudoeste 18 Sudoeste 0 -- -- 78
2020-08-12 00:00:00 19.7 6 Sudoeste 13 Sudoeste 0 -- -- 83
2020-08-11 23:00:00 20.4 4 Sudeste 19 Sudoeste 0 -- -- 86
2020-08-11 22:00:00 20 12 Sudoeste 15 Sudoeste 0 -- -- 79
2020-08-11 21:00:00 21 4 Sur 14 Sudoeste 0 -- -- 70
2020-08-11 20:00:00 21.9 4 Norte 17 Este 0 -- -- 67
2020-08-11 19:00:00 23.9 12 Nordeste 22 Este 0 -- -- 60
2020-08-11 18:00:00 25.3 6 Este 22 Nordeste 0 -- -- 55
2020-08-11 17:00:00 25.3 4 Sudeste 24 Este 0 -- -- 55
2020-08-11 16:00:00 25.3 8 Este 24 Este 0 -- -- 56
2020-08-11 15:00:00 25.1 5 Sudeste 28 Nordeste 0 -- -- 54
2020-08-11 14:00:00 25.5 9 Este 26 Este 0 -- -- 53
2020-08-11 13:00:00 25.5 10 Sudeste 24 Este 0 -- -- 53
2020-08-11 12:00:00 23.9 8 Este 20 Este 0 -- -- 60
2020-08-11 11:00:00 22.9 8 Este 16 Este 0 -- -- 67
2020-08-11 10:00:00 21.1 9 Nordeste 13 Nordeste 0 -- -- 80
2020-08-11 09:00:00 21.2 4 Sudeste 12 Este 0 -- -- 78
2020-08-11 08:00:00 19.5 5 Sudoeste 13 Sudoeste 0 -- -- 79
2020-08-11 07:00:00 19.3 9 Sudoeste 14 Sudoeste 0 -- -- 81
2020-08-11 06:00:00 19.1 3 Sudoeste 12 Noroeste 0 -- -- 85
2020-08-11 05:00:00 19.6 5 Oeste 17 Sudoeste 0 -- -- 83
2020-08-11 04:00:00 19.1 5 Oeste 14 Sudoeste 0 -- -- 80
2020-08-11 03:00:00 18.8 8 Oeste 15 Oeste 0 -- -- 80
2020-08-11 02:00:00 18.8 10 Sudoeste 14 Sudoeste 0 -- -- 82
2020-08-11 01:00:00 19.1 10 Sudoeste 17 Sudoeste 0 -- -- 77
2020-08-11 00:00:00 19.4 10 Sudoeste 22 Sudoeste 0 -- -- 78
2020-08-10 23:00:00 20 14 Sudoeste 24 Oeste 0 -- -- 74
2020-08-10 22:00:00 20.1 15 Oeste 24 Oeste 0 -- -- 76
2020-08-10 21:00:00 20.3 11 Oeste 21 Sudoeste 0 -- -- 78
2020-08-10 20:00:00 21.3 5 Norte 20 Nordeste 0 -- -- 77
2020-08-10 19:00:00 22.9 6 Nordeste 20 Nordeste 0 -- -- 67
2020-08-10 18:00:00 24.3 13 Este 23 Nordeste 0 -- -- 63
2020-08-10 17:00:00 23.9 10 Nordeste 19 Nordeste 0 -- -- 70
2020-08-10 16:00:00 23.2 13 Nordeste 23 Nordeste 0 -- -- 74
2020-08-10 15:00:00 25.6 14 Nordeste 23 Este 0 -- -- 66
2020-08-10 14:00:00 24.9 12 Nordeste 25 Nordeste 0 -- -- 61
2020-08-10 13:00:00 24.4 9 Nordeste 22 Norte 0 -- -- 68
2020-08-10 12:00:00 22.4 4 Este 12 Este 0 -- -- 80
2020-08-10 11:00:00 20.8 4 Este 12 Sudoeste 0 -- -- 87
2020-08-10 10:00:00 19.7 5 Este 13 Nordeste 0.2 -- -- 89
2020-08-10 09:00:00 19.7 3 Este 13 Sudoeste 0 -- -- 94
2020-08-10 08:00:00 19.1 11 Sudoeste 18 Sudoeste 1 -- -- 93
2020-08-10 07:00:00 19.3 10 Nordeste 17 Sudoeste 1 -- -- 96
2020-08-10 06:00:00 19.6 10 Sudoeste 21 Sudoeste 0.2 -- -- 87
2020-08-10 05:00:00 20 5 Sudeste 19 Sudoeste 0 -- -- 88
2020-08-10 04:00:00 20.2 11 Sudoeste 18 Sudoeste 0 -- -- 80
2020-08-10 03:00:00 20.3 7 Sudeste 13 Sudeste 0 -- -- 86
2020-08-10 02:00:00 20.4 9 Sur 19 Sudoeste 0 -- -- 81
2020-08-10 01:00:00 20.3 4 Noroeste 11 Norte 0 -- -- 82
2020-08-10 00:00:00 20.5 6 Oeste 17 Sudoeste 0 -- -- 82
2020-08-09 23:00:00 20.3 5 Oeste 14 Noroeste 0 -- -- 84
2020-08-09 22:00:00 20.4 8 Norte 16 Sudoeste 0 -- -- 86
2020-08-09 21:00:00 20.3 2 Noroeste 16 Norte 0 -- -- 82
2020-08-09 20:00:00 21.2 10 Norte 22 Norte 0 -- -- 79
2020-08-09 19:00:00 22.6 12 Norte 21 Norte 0 -- -- 68
2020-08-09 18:00:00 22.1 10 Norte 18 Nordeste 0 -- -- 78
2020-08-09 17:00:00 21.8 15 Nordeste 23 Nordeste 0 -- -- 83
2020-08-09 16:00:00 25.4 13 Nordeste 27 Nordeste 0 -- -- 66
2020-08-09 15:00:00 25.4 14 Nordeste 28 Norte 0 -- -- 65
2020-08-09 14:00:00 25.3 11 Nordeste 25 Nordeste 0 -- -- 66
2020-08-09 13:00:00 25.1 17 Nordeste 26 Nordeste 0 -- -- 62
2020-08-09 12:00:00 23.6 13 Nordeste 21 Nordeste 0 -- -- 72
2020-08-09 11:00:00 22.9 13 Nordeste 21 Nordeste 0 -- -- 77
2020-08-09 10:00:00 21.7 7 Nordeste 16 Nordeste 0 -- -- 80
2020-08-09 09:00:00 20.7 4 Sudoeste 11 Sudoeste 0 -- -- 80
2020-08-09 08:00:00 19.9 4 Sudoeste 9 Nordeste 0 -- -- 83
2020-08-09 07:00:00 20.2 3 Nordeste 14 Este 0 -- -- 86
2020-08-09 06:00:00 20.7 4 Norte 14 Sudoeste 0 -- -- 84
2020-08-09 05:00:00 20.5 4 Sudeste 13 Sudoeste 0 -- -- 87
2020-08-09 04:00:00 20.3 9 Sudoeste 13 Sudoeste 0 -- -- 86
2020-08-09 03:00:00 20.4 7 Norte 13 Norte 0 -- -- 86
2020-08-09 02:00:00 20.6 4 Noroeste 13 Oeste 0 -- -- 84
2020-08-09 01:00:00 20.9 10 Sudoeste 16 Sudoeste 0 -- -- 86
2020-08-09 00:00:00 20.6 6 Noroeste 17 Norte 0 -- -- 85
2020-08-08 23:00:00 21.2 6 Oeste 17 Oeste 0 -- -- 84
2020-08-08 22:00:00 21.2 6 Norte 22 Noroeste 0 -- -- 84
2020-08-08 21:00:00 21.6 10 Norte 23 Noroeste 0 -- -- 81
2020-08-08 20:00:00 22.1 9 Noroeste 28 Noroeste 0 -- -- 79
2020-08-08 19:00:00 23.3 9 Noroeste 28 Oeste 0 -- -- 71
2020-08-08 18:00:00 25.5 8 Sudeste 20 Noroeste 0 -- -- 62
2020-08-08 17:00:00 25.6 10 Nordeste 21 Nordeste 0 -- -- 60
2020-08-08 16:00:00 25.5 12 Nordeste 21 Nordeste 0 -- -- 58
2020-08-08 15:00:00 25.6 11 Nordeste 21 Nordeste 0 -- -- 59
2020-08-08 14:00:00 27.3 11 Este 20 Este 0 -- -- 55
2020-08-08 13:00:00 26.9 7 Este 23 Este 0 -- -- 53
2020-08-08 12:00:00 25.9 12 Este 22 Este 0 -- -- 56
2020-08-08 11:00:00 24.8 9 Este 17 Nordeste 0 -- -- 62
2020-08-08 10:00:00 23.9 8 Este 14 Este 0 -- -- 63
2020-08-08 09:00:00 21.3 4 Sudeste 9 Este 0 -- -- 77
2020-08-08 08:00:00 18.8 7 Sudoeste 12 Sudoeste 0 -- -- 81
2020-08-08 07:00:00 19.4 6 Sudoeste 18 Sudoeste 0 -- -- 83
2020-08-08 06:00:00 19 10 Sudoeste 13 Sudoeste 0 -- -- 79
2020-08-08 05:00:00 19.8 5 Sudoeste 19 Sudoeste 0 -- -- 83
2020-08-08 04:00:00 20.1 16 Sudoeste 24 Sudoeste 0 -- -- 78
2020-08-08 03:00:00 19.8 11 Sudoeste 14 Sudoeste 0 -- -- 77
2020-08-08 02:00:00 20.1 5 Norte 16 Noroeste 0 -- -- 76
2020-08-08 01:00:00 20.3 6 Oeste 21 Sudoeste 0 -- -- 77
2020-08-08 00:00:00 19.3 15 Sudoeste 20 Sudoeste 0 -- -- 79
2020-08-07 23:00:00 19.4 7 Oeste 13 Sudoeste 0 -- -- 79
2020-08-07 22:00:00 20.4 0 Calma 10 Nordeste 0 -- -- 82
2020-08-07 21:00:00 20.7 5 Nordeste 15 Este 0 -- -- 81
2020-08-07 20:00:00 21.4 5 Nordeste 11 Nordeste 0 -- -- 75
2020-08-07 19:00:00 22.2 6 Nordeste 14 Nordeste 0 -- -- 73
2020-08-07 18:00:00 23.4 7 Este 17 Este 0 -- -- 67
2020-08-07 17:00:00 24.3 9 Nordeste 19 Nordeste 0 -- -- 62
2020-08-07 16:00:00 24.5 10 Nordeste 24 Este 0 -- -- 61
2020-08-07 15:00:00 24.9 14 Nordeste 24 Nordeste 0 -- -- 60
2020-08-07 14:00:00 24.7 13 Este 20 Nordeste 0 -- -- 61
2020-08-07 13:00:00 24.2 11 Este 22 Este 0 -- -- 63
2020-08-07 12:00:00 24.5 12 Este 21 Este 0 -- -- 66
2020-08-07 11:00:00 23.5 11 Nordeste 17 Nordeste 0 -- -- 65
2020-08-07 10:00:00 20.8 3 Sudoeste 15 Este 0 -- -- 74
2020-08-07 09:00:00 20.1 3 Sudeste 8 Este 0 -- -- 76
2020-08-07 08:00:00 19.7 4 Sudoeste 14 Sudoeste 0 -- -- 78
2020-08-07 07:00:00 19.7 8 Sudoeste 14 Sudoeste 0 -- -- 79
2020-08-07 06:00:00 19.6 8 Sudoeste 12 Sudoeste 0 -- -- 79
2020-08-07 05:00:00 19.6 6 Sudoeste 13 Oeste 0 -- -- 77
2020-08-07 04:00:00 19.3 9 Oeste 17 Sudoeste 0 -- -- 78
2020-08-07 03:00:00 19.6 3 Oeste 9 Oeste 0 -- -- 77
2020-08-07 02:00:00 19.6 4 Oeste 8 Sudoeste 0 -- -- 78
2020-08-07 01:00:00 19.8 4 Noroeste 7 Norte 0 -- -- 79
2020-08-07 00:00:00 20 2 Nordeste 6 Nordeste 0 -- -- 79
2020-08-06 23:00:00 20.1 3 Este 6 Sudeste 0 -- -- 82
2020-08-06 22:00:00 20.3 4 Este 11 Nordeste 0 -- -- 82
2020-08-06 21:00:00 20.4 6 Nordeste 12 Nordeste 0 -- -- 84
2020-08-06 20:00:00 21 8 Nordeste 18 Norte 0 -- -- 80
2020-08-06 19:00:00 21.7 11 Nordeste 21 Norte 0 -- -- 77
2020-08-06 18:00:00 22.2 13 Norte 23 Norte 0 -- -- 69
2020-08-06 17:00:00 22.4 13 Norte 23 Norte 0 -- -- 69
2020-08-06 16:00:00 22.4 11 Nordeste 19 Norte 0 -- -- 73
2020-08-06 15:00:00 22.8 13 Nordeste 23 Nordeste 0 -- -- 73
2020-08-06 14:00:00 24.5 12 Nordeste 19 Nordeste 0 -- -- 63
2020-08-06 13:00:00 24.7 13 Nordeste 21 Nordeste 0 -- -- 63
2020-08-06 12:00:00 22.4 9 Este 18 Este 0 -- -- 70
2020-08-06 11:00:00 21.4 8 Este 13 Este 0 -- -- 75
2020-08-06 10:00:00 20.2 7 Nordeste 12 Nordeste 0 -- -- 81
2020-08-06 09:00:00 19.7 4 Sudeste 9 Sur 0 -- -- 86
2020-08-06 08:00:00 19.5 5 Sur 12 Sudoeste 0 -- -- 85
2020-08-06 07:00:00 19.5 6 Oeste 17 Sudoeste 0 -- -- 82
2020-08-06 06:00:00 19.5 8 Sudoeste 12 Sudoeste 0 -- -- 83
2020-08-06 05:00:00 19.4 6 Oeste 12 Oeste 0 -- -- 85
2020-08-06 04:00:00 19.3 5 Oeste 11 Noroeste 0 -- -- 87
2020-08-06 03:00:00 19.3 3 Noroeste 8 Este 0 -- -- 91
2020-08-06 02:00:00 19.5 3 Norte 6 Noroeste 0 -- -- 88
2020-08-06 01:00:00 19.5 5 Norte 14 Noroeste 0 -- -- 89
2020-08-06 00:00:00 19.6 6 Noroeste 14 Oeste 0 -- -- 87
2020-08-05 23:00:00 19.4 7 Oeste 13 Nordeste 0 -- -- 90
2020-08-05 22:00:00 19.7 6 Nordeste 13 Noroeste 0 -- -- 91
2020-08-05 21:00:00 19.6 8 Norte 14 Norte 0 -- -- 90
2020-08-05 20:00:00 20.2 6 Norte 19 Norte 0 -- -- 85
2020-08-05 19:00:00 21 12 Nordeste 18 Nordeste 0 -- -- 83
2020-08-05 18:00:00 21.7 12 Nordeste 16 Nordeste 0 -- -- 80
2020-08-05 17:00:00 22.6 11 Nordeste 18 Nordeste 0 -- -- 78
2020-08-05 16:00:00 24.5 14 Nordeste 20 Nordeste 0 -- -- 71
2020-08-05 15:00:00 25.2 12 Nordeste 23 Nordeste 0 -- -- 67
2020-08-05 14:00:00 24.8 11 Nordeste 21 Este 0 -- -- 68
2020-08-05 13:00:00 24 11 Nordeste 19 Nordeste 0 -- -- 70
2020-08-05 12:00:00 24.6 12 Nordeste 21 Este 0 -- -- 66
2020-08-05 11:00:00 22.9 8 Este 17 Nordeste 0 -- -- 74
2020-08-05 10:00:00 20.4 10 Sudoeste 16 Sudoeste 0 -- -- 82
2020-08-05 09:00:00 19.5 4 Sudoeste 16 Sudoeste 0 -- -- 85
2020-08-05 08:00:00 19 4 Sudoeste 10 Sudoeste 0 -- -- 88
2020-08-05 07:00:00 18.9 10 Sudoeste 14 Sudoeste 0 -- -- 87
2020-08-05 06:00:00 18.9 7 Sudoeste 12 Sudoeste 0 -- -- 89
2020-08-05 05:00:00 18.8 5 Sudoeste 11 Oeste 0 -- -- 90
2020-08-05 04:00:00 18.6 2 Oeste 12 Noroeste 0 -- -- 92
2020-08-05 03:00:00 18.8 5 Oeste 10 Noroeste 0 -- -- 91
2020-08-05 02:00:00 18.7 5 Oeste 11 Oeste 0 -- -- 90
2020-08-05 01:00:00 19.1 5 Oeste 12 Oeste 0 -- -- 88
2020-08-05 00:00:00 19.7 3 Noroeste 9 Sudoeste 0 -- -- 88
2020-08-04 23:00:00 19.7 5 Oeste 13 Este 0 -- -- 87
2020-08-04 22:00:00 19.9 4 Este 12 Norte 0 -- -- 89
2020-08-04 21:00:00 20.1 6 Nordeste 13 Norte 0 -- -- 86
2020-08-04 20:00:00 20.7 4 Oeste 14 Norte 0 -- -- 80
2020-08-04 19:00:00 21.2 7 Norte 16 Nordeste 0 -- -- 83
2020-08-04 18:00:00 21.6 11 Nordeste 17 Nordeste 0 -- -- 84
2020-08-04 17:00:00 23.3 11 Nordeste 21 Norte 0 -- -- 76
2020-08-04 16:00:00 25.5 13 Nordeste 22 Este 0 -- -- 63
2020-08-04 15:00:00 24.6 14 Este 23 Este 0 -- -- 66
2020-08-04 14:00:00 23.2 10 Este 21 Este 0 -- -- 76
2020-08-04 13:00:00 23.9 12 Este 20 Este 0 -- -- 77
2020-08-04 12:00:00 20.3 6 Sudeste 22 Este 0.2 -- -- 90
2020-08-04 11:00:00 20.6 11 Este 17 Este 0.2 -- -- 92
2020-08-04 10:00:00 19.4 7 Este 13 Este 0 -- -- 95
2020-08-04 09:00:00 19.2 8 Sudoeste 18 Sur 0 -- -- 86
2020-08-04 08:00:00 18.8 7 Sudoeste 14 Sudoeste 0 -- -- 87
2020-08-04 07:00:00 18.9 9 Sudoeste 21 Sudoeste 0 -- -- 86
2020-08-04 06:00:00 18.6 10 Sudoeste 20 Sudoeste 0 -- -- 86
2020-08-04 05:00:00 17.9 8 Sudoeste 16 Sudoeste 0 -- -- 86
2020-08-04 04:00:00 17.6 6 Oeste 12 Sudoeste 0 -- -- 87
2020-08-04 03:00:00 17.5 8 Sudoeste 10 Sudoeste 0 -- -- 90
2020-08-04 02:00:00 17.6 4 Sudoeste 9 Sudoeste 0 -- -- 92
2020-08-04 01:00:00 17.7 4 Sudoeste 9 Oeste 0 -- -- 92
2020-08-04 00:00:00 17.9 5 Sudoeste 10 Sudoeste 0 -- -- 91
2020-08-03 23:00:00 18.3 5 Oeste 13 Sudoeste 0 -- -- 87
2020-08-03 22:00:00 19 7 Sudoeste 15 Oeste 0 -- -- 84
2020-08-03 21:00:00 19.4 5 Norte 12 Noroeste 0 -- -- 84
2020-08-03 20:00:00 20.1 10 Nordeste 16 Nordeste 0 -- -- 83
2020-08-03 19:00:00 21.8 12 Nordeste 20 Nordeste 0 -- -- 78
2020-08-03 18:00:00 22.3 12 Nordeste 19 Este 0 -- -- 76
2020-08-03 17:00:00 22.1 11 Nordeste 21 Nordeste 0 -- -- 77
2020-08-03 16:00:00 22.5 12 Nordeste 19 Nordeste 0 -- -- 76
2020-08-03 15:00:00 22.4 10 Nordeste 21 Nordeste 0 -- -- 77
2020-08-03 14:00:00 23.3 11 Nordeste 22 Nordeste 0 -- -- 71
2020-08-03 13:00:00 24.1 12 Nordeste 21 Nordeste 0 -- -- 68
2020-08-03 12:00:00 21.9 8 Este 17 Nordeste 0 -- -- 77
2020-08-03 11:00:00 20.9 8 Nordeste 17 Nordeste 0 -- -- 83
2020-08-03 10:00:00 20.3 3 Este 12 Nordeste 0 -- -- 86
2020-08-03 09:00:00 19.2 3 Este 10 Este 0 -- -- 89
2020-08-03 08:00:00 18.9 3 Este 8 Sudeste 0 -- -- 90
2020-08-03 07:00:00 19 2 Este 8 Este 0 -- -- 92
2020-08-03 06:00:00 19.2 5 Este 10 Este 0 -- -- 93
2020-08-03 05:00:00 19.3 4 Este 11 Sudoeste 0 -- -- 92
2020-08-03 04:00:00 19.4 3 Noroeste 10 Noroeste 0 -- -- 91
2020-08-03 03:00:00 19.5 3 Nordeste 9 Nordeste 0 -- -- 92
2020-08-03 02:00:00 19.7 6 Sudoeste 9 Sudoeste 0 -- -- 92
2020-08-03 01:00:00 19.7 2 Norte 5 Norte 0 -- -- 91
2020-08-03 00:00:00 19.6 3 Sur 9 Sudoeste 0 -- -- 91
2020-08-02 23:00:00 20 4 Sur 10 Sudoeste 0 -- -- 91
2020-08-02 22:00:00 20.3 5 Sur 10 Sudeste 0 -- -- 89
2020-08-02 21:00:00 20.9 7 Este 14 Este 0 -- -- 89
2020-08-02 20:00:00 21.6 6 Este 19 Este 0 -- -- 81
2020-08-02 19:00:00 22.9 10 Este 22 Este 0 -- -- 78
2020-08-02 18:00:00 24 12 Este 19 Este 0 -- -- 73
2020-08-02 17:00:00 24.6 9 Este 18 Este 0 -- -- 72
2020-08-02 16:00:00 24.8 9 Este 19 Este 0 -- -- 71
2020-08-02 15:00:00 25.2 12 Este 22 Este 0 -- -- 71
2020-08-02 14:00:00 24.8 8 Este 18 Este 0 -- -- 71
2020-08-02 13:00:00 24.8 10 Este 19 Este 0 -- -- 72
2020-08-02 12:00:00 25.2 9 Este 17 Este 0 -- -- 71
2020-08-02 11:00:00 23.5 9 Este 17 Nordeste 0 -- -- 78
2020-08-02 10:00:00 22.5 8 Este 11 Este 0 -- -- 81
2020-08-02 09:00:00 19.7 7 Este 13 Este 0 -- -- 90
2020-08-02 08:00:00 19 7 Sudoeste 10 Oeste 0 -- -- 91
2020-08-02 07:00:00 19.2 4 Este 9 Este 0 -- -- 91
2020-08-02 06:00:00 19.3 3 Sudeste 13 Sudoeste 0 -- -- 92
2020-08-02 05:00:00 19.3 3 Sudoeste 9 Sudoeste 0 -- -- 91
2020-08-02 04:00:00 19.2 5 Sudoeste 10 Sudoeste 0 -- -- 91
2020-08-02 03:00:00 19.1 3 Sur 9 Sudoeste 0 -- -- 93
2020-08-02 02:00:00 19 8 Sudoeste 10 Sudoeste 0 -- -- 91
2020-08-02 01:00:00 19 2 Oeste 5 Oeste 0 -- -- 92
2020-08-02 00:00:00 19.2 3 Nordeste 7 Nordeste 0 -- -- 93
2020-08-01 23:00:00 19.2 2 Este 6 Sudoeste 0 -- -- 93
2020-08-01 22:00:00 19.3 3 Sudoeste 8 Nordeste 0 -- -- 91
2020-08-01 21:00:00 20 3 Nordeste 8 Nordeste 0 -- -- 86
2020-08-01 20:00:00 20.7 5 Este 12 Nordeste 0 -- -- 84
2020-08-01 19:00:00 20.8 8 Nordeste 14 Norte 0 -- -- 86
2020-08-01 18:00:00 21.1 9 Nordeste 16 Nordeste 0 -- -- 85
2020-08-01 17:00:00 21.9 10 Este 16 Este 0 -- -- 81
2020-08-01 16:00:00 22.5 9 Este 15 Este 0 -- -- 79
2020-08-01 15:00:00 22.3 9 Este 20 Este 0 -- -- 78
2020-08-01 14:00:00 22.1 9 Este 19 Este 0 -- -- 77
2020-08-01 13:00:00 22 9 Este 19 Este 0 -- -- 78
2020-08-01 12:00:00 21.5 9 Este 17 Nordeste 0 -- -- 78
2020-08-01 11:00:00 21.5 10 Este 16 Este 0 -- -- 80
2020-08-01 10:00:00 20.6 5 Este 13 Este 0 -- -- 82
2020-08-01 09:00:00 19.2 5 Sudeste 13 Sudeste 0 -- -- 88
2020-08-01 08:00:00 18.9 5 Sur 12 Sudeste 0 -- -- 88
2020-08-01 07:00:00 18.8 8 Sudoeste 12 Sudoeste 0 -- -- 87
2020-08-01 06:00:00 18.8 6 Sudoeste 11 Sur 0 -- -- 87
2020-08-01 05:00:00 18.9 6 Sur 15 Sudoeste 0 -- -- 87
2020-08-01 04:00:00 18.7 10 Sudoeste 14 Sudoeste 0 -- -- 86
2020-08-01 03:00:00 18.8 8 Sudeste 12 Sudeste 0 -- -- 90
2020-08-01 02:00:00 18.9 5 Sur 14 Sudoeste 0 -- -- 87
2020-08-01 01:00:00 19 6 Sur 14 Sur 0 -- -- 87
2020-08-01 00:00:00 19 5 Sudeste 13 Sudeste 0 -- -- 87
2020-07-31 23:00:00 19.1 5 Este 12 Este 0 -- -- 88
2020-07-31 22:00:00 19.2 4 Sur 17 Este 0 -- -- 86
2020-07-31 21:00:00 19.4 9 Este 14 Este 0 -- -- 86
2020-07-31 20:00:00 19.7 10 Este 14 Este 0 -- -- 82
2020-07-31 19:00:00 20.1 9 Nordeste 18 Nordeste 0 -- -- 81
2020-07-31 18:00:00 20.9 11 Este 20 Nordeste 0 -- -- 78
2020-07-31 17:00:00 21.3 9 Nordeste 19 Este 0 -- -- 74
2020-07-31 16:00:00 21.4 12 Este 21 Este 0 -- -- 73
2020-07-31 15:00:00 22 14 Este 25 Este 0 -- -- 73
2020-07-31 14:00:00 22 13 Este 22 Este 0 -- -- 71
2020-07-31 13:00:00 21.8 13 Este 24 Este 0 -- -- 70
2020-07-31 12:00:00 21.4 9 Este 18 Este 0 -- -- 72
2020-07-31 11:00:00 20.3 15 Este 20 Este 0 -- -- 77
2020-07-31 10:00:00 19.4 10 Este 18 Oeste 0 -- -- 79
2020-07-31 09:00:00 18.8 11 Sudoeste 19 Sudoeste 0 -- -- 79
2020-07-31 08:00:00 18.6 9 Sudeste 14 Sudeste 0 -- -- 81
2020-07-31 07:00:00 18.5 8 Sudoeste 16 Sudoeste 0 -- -- 80
2020-07-31 06:00:00 18.5 5 Este 14 Sudoeste 0 -- -- 80
2020-07-31 05:00:00 18.5 5 Sur 15 Nordeste 0 -- -- 79
2020-07-31 04:00:00 18.7 5 Sudeste 16 Este 0 -- -- 79
2020-07-31 03:00:00 18.7 7 Sur 16 Sur 0 -- -- 79
2020-07-31 02:00:00 19 5 Sudeste 14 Sudoeste 0 -- -- 78
2020-07-31 01:00:00 19.1 3 Sudeste 10 Este 0 -- -- 77
2020-07-31 00:00:00 19.2 4 Sudeste 12 Nordeste 0 -- -- 77
2020-07-30 23:00:00 19.3 5 Este 11 Este 0 -- -- 80
2020-07-30 22:00:00 19.4 6 Norte 13 Norte 0 -- -- 75
2020-07-30 21:00:00 19.9 6 Este 15 Este 0 -- -- 74
2020-07-30 20:00:00 20.6 4 Este 21 Este 0 -- -- 72
2020-07-30 19:00:00 21.5 7 Este 19 Nordeste 0 -- -- 68
2020-07-30 18:00:00 21.7 7 Norte 23 Nordeste 0 -- -- 67
2020-07-30 17:00:00 23 14 Nordeste 23 Nordeste 0 -- -- 64
2020-07-30 16:00:00 22.7 14 Este 22 Este 0 -- -- 68
2020-07-30 15:00:00 22.4 12 Nordeste 24 Este 0 -- -- 68
2020-07-30 14:00:00 24.4 13 Este 27 Este 0 -- -- 60
2020-07-30 13:00:00 23.9 14 Este 25 Este 0 -- -- 61
2020-07-30 12:00:00 20.7 6 Sudeste 15 Nordeste 0 -- -- 74
2020-07-30 11:00:00 19.2 5 Sur 18 Este 0 -- -- 76
2020-07-30 10:00:00 18.7 6 Este 13 Sudoeste 0 -- -- 83
2020-07-30 09:00:00 18.2 2 Este 9 Sudoeste 0 -- -- 82
2020-07-30 08:00:00 18 4 Oeste 13 Oeste 0 -- -- 85
2020-07-30 07:00:00 18 4 Sur 9 Oeste 0 -- -- 90
2020-07-30 06:00:00 18 2 Oeste 14 Noroeste 0 -- -- 90
2020-07-30 05:00:00 18.1 4 Oeste 9 Sur 0 -- -- 92
2020-07-30 04:00:00 18.4 5 Sudoeste 13 Nordeste 0 -- -- 92
2020-07-30 03:00:00 18.7 5 Sur 15 Este 0.4 -- -- 91
2020-07-30 02:00:00 18.8 4 Noroeste 16 Sudoeste 1.8 -- -- 93
2020-07-30 01:00:00 19.4 10 Nordeste 20 Este 0 -- -- 92
2020-07-30 00:00:00 19.9 8 Oeste 12 Sudoeste 0 -- -- 81
2020-07-29 23:00:00 20.2 5 Nordeste 15 Nordeste 0 -- -- 78
2020-07-29 22:00:00 20.1 4 Oeste 20 Este 0 -- -- 80
2020-07-29 21:00:00 20.4 6 Sudeste 14 Sudeste 0 -- -- 75
2020-07-29 20:00:00 21.6 5 Sur 18 Este 0 -- -- 70
2020-07-29 19:00:00 22.4 9 Este 24 Nordeste 0 -- -- 69
2020-07-29 18:00:00 24.6 6 Este 25 Este 0 -- -- 63
2020-07-29 17:00:00 24.3 10 Este 23 Este 0 -- -- 59
2020-07-29 16:00:00 24.8 10 Nordeste 27 Nordeste 0 -- -- 57
2020-07-29 15:00:00 25.7 14 Nordeste 31 Nordeste 0 -- -- 55
2020-07-29 14:00:00 26.2 20 Este 29 Este 0 -- -- 55
2020-07-29 13:00:00 25.9 18 Este 32 Este 0 -- -- 59
2020-07-29 12:00:00 21.8 6 Sudeste 17 Nordeste 0 -- -- 71
2020-07-29 11:00:00 21.1 10 Nordeste 21 Sudoeste 0 -- -- 75
2020-07-29 10:00:00 20.1 8 Sudoeste 27 Sudoeste 0 -- -- 74
2020-07-29 09:00:00 19.3 12 Sudoeste 20 Sudoeste 0 -- -- 77
2020-07-29 08:00:00 19 10 Este 18 Este 0 -- -- 79
2020-07-29 07:00:00 18.9 8 Sudoeste 16 Sudoeste 0 -- -- 80
2020-07-29 06:00:00 18.7 6 Este 17 Este 0 -- -- 80
2020-07-29 05:00:00 19.2 8 Este 19 Sudoeste 0 -- -- 84
2020-07-29 04:00:00 19.2 6 Sur 18 Este 0 -- -- 82
2020-07-29 03:00:00 19.1 8 Sudoeste 14 Sudoeste 0 -- -- 82
2020-07-29 02:00:00 19.1 11 Sudoeste 23 Sudoeste 0 -- -- 82
2020-07-29 01:00:00 19.2 11 Sudoeste 16 Sur 0 -- -- 82
2020-07-29 00:00:00 19.4 6 Sudeste 12 Sur 0 -- -- 83
2020-07-28 23:00:00 19.4 7 Sudoeste 12 Este 0 -- -- 84
2020-07-28 22:00:00 19.6 3 Sur 15 Este 0 -- -- 82
2020-07-28 21:00:00 19.9 8 Este 17 Oeste 0 -- -- 81
2020-07-28 20:00:00 20.6 10 Este 22 Nordeste 0 -- -- 77
2020-07-28 19:00:00 21.4 9 Este 23 Este 0 -- -- 74
2020-07-28 18:00:00 22.5 12 Este 26 Este 0 -- -- 70
2020-07-28 17:00:00 23.3 16 Este 26 Este 0 -- -- 71
2020-07-28 16:00:00 23.5 14 Este 28 Este 0 -- -- 67
2020-07-28 15:00:00 23.8 13 Este 26 Este 0 -- -- 68
2020-07-28 14:00:00 23.6 12 Este 29 Este 0 -- -- 69
2020-07-28 13:00:00 23.9 14 Este 23 Este 0 -- -- 66
2020-07-28 12:00:00 21.5 14 Este 23 Este 0 -- -- 76
2020-07-28 11:00:00 20.3 12 Este 21 Este 0 -- -- 80
2020-07-28 10:00:00 19.5 8 Sudeste 18 Este 0 -- -- 81
2020-07-28 09:00:00 19.1 9 Sudeste 19 Sudoeste 0 -- -- 85
2020-07-28 08:00:00 18.8 10 Sudoeste 18 Nordeste 0 -- -- 86
2020-07-28 07:00:00 18.9 7 Sudeste 20 Este 0 -- -- 87
2020-07-28 06:00:00 18.9 8 Sudeste 16 Sur 0 -- -- 86
2020-07-28 05:00:00 19 8 Sudeste 18 Este 0 -- -- 86
2020-07-28 04:00:00 19.1 12 Este 20 Este 0 -- -- 85
2020-07-28 03:00:00 19.3 5 Sur 15 Nordeste 0 -- -- 85
2020-07-28 02:00:00 19.5 8 Sudoeste 13 Sur 0 -- -- 84
2020-07-28 01:00:00 19.6 7 Sudoeste 16 Sudoeste 0 -- -- 84
2020-07-28 00:00:00 19.6 8 Este 25 Sudoeste 0 -- -- 84
2020-07-27 23:00:00 19.8 6 Sudeste 15 Este 0 -- -- 83
2020-07-27 22:00:00 19.9 5 Este 17 Este 0 -- -- 82
2020-07-27 21:00:00 19.9 4 Nordeste 15 Nordeste 0 -- -- 82
2020-07-27 20:00:00 20.7 8 Nordeste 17 Nordeste 0 -- -- 77
2020-07-27 19:00:00 22.1 9 Este 21 Este 0 -- -- 72
2020-07-27 18:00:00 23.5 12 Este 25 Este 0 -- -- 66
2020-07-27 17:00:00 22.9 14 Este 28 Este 0 -- -- 69
2020-07-27 16:00:00 23.3 18 Este 28 Nordeste 0 -- -- 70
2020-07-27 15:00:00 23.4 19 Este 30 Este 0 -- -- 69
2020-07-27 14:00:00 24.6 17 Este 27 Este 0 -- -- 64
2020-07-27 13:00:00 24.6 17 Este 27 Nordeste 0 -- -- 63
2020-07-27 12:00:00 24.8 19 Este 27 Nordeste 0 -- -- 65
2020-07-27 11:00:00 23.7 17 Este 25 Este 0 -- -- 66
2020-07-27 08:00:00 -- -- -- -- -- -- -- -- --
2020-07-27 07:00:00 18.1 7 Sudoeste 19 Sudoeste 0 -- -- 86
2020-07-27 06:00:00 18 8 Sur 18 Sudeste 0 -- -- 87
2020-07-27 05:00:00 18.1 6 Sur 14 Sudoeste 0 -- -- 87
2020-07-27 04:00:00 18 8 Sudoeste 17 Sudoeste 0 -- -- 88
2020-07-27 03:00:00 17.6 10 Sudoeste 13 Sudoeste 0 -- -- 90
2020-07-27 02:00:00 18.2 9 Sudoeste 17 Sudoeste 0 -- -- 86
2020-07-27 01:00:00 18.5 8 Sudoeste 11 Sudoeste 0 -- -- 85
2020-07-27 00:00:00 19.1 4 Sudeste 15 Sudoeste 0 -- -- 82
2020-07-26 23:00:00 19.2 6 Este 24 Sur 0 -- -- 83
2020-07-26 22:00:00 19.4 6 Sudeste 18 Este 0 -- -- 82
2020-07-26 21:00:00 19.9 10 Este 18 Este 0 -- -- 80
2020-07-26 20:00:00 21.2 10 Este 21 Nordeste 0 -- -- 75
2020-07-26 19:00:00 22.9 12 Este 19 Este 0 -- -- 68
2020-07-26 18:00:00 23.9 12 Este 23 Este 0 -- -- 69
2020-07-26 17:00:00 24.9 14 Este 25 Este 0 -- -- 62
2020-07-26 16:00:00 25.7 14 Este 22 Este 0 -- -- 60
2020-07-26 15:00:00 25.2 13 Este 24 Nordeste 0 -- -- 61
2020-07-26 14:00:00 25.4 15 Este 27 Este 0 -- -- 60
2020-07-26 13:00:00 24.4 14 Nordeste 25 Nordeste 0 -- -- 63
2020-07-26 12:00:00 24.6 15 Nordeste 23 Este 0 -- -- 65
2020-07-26 11:00:00 23.9 12 Nordeste 21 Este 0 -- -- 67
2020-07-26 10:00:00 21 8 Este 16 Este 0 -- -- 76
2020-07-26 09:00:00 19.6 5 Este 7 Este 0 -- -- 84
2020-07-26 08:00:00 18.2 4 Sudoeste 10 Sudoeste 0 -- -- 90
2020-07-26 07:00:00 18.2 7 Sudoeste 12 Sudoeste 0 -- -- 89
2020-07-26 06:00:00 18.5 11 Sudoeste 14 Sudoeste 0 -- -- 88
2020-07-26 05:00:00 19.1 9 Sudoeste 19 Sudoeste 0 -- -- 85
2020-07-26 04:00:00 18.8 8 Sudoeste 17 Sudoeste 0 -- -- 86
2020-07-26 03:00:00 18.9 5 Sur 14 Sudoeste 0 -- -- 86
2020-07-26 02:00:00 18.7 10 Sudoeste 16 Sur 0 -- -- 87
2020-07-26 01:00:00 18.5 9 Sudoeste 17 Sudoeste 0 -- -- 86
2020-07-26 00:00:00 18.8 5 Nordeste 12 Este 0 -- -- 83
2020-07-25 23:00:00 18.8 4 Noroeste 11 Norte 0 -- -- 84
2020-07-25 22:00:00 19 4 Nordeste 16 Nordeste 0 -- -- 84
2020-07-25 21:00:00 19.5 6 Nordeste 14 Nordeste 0 -- -- 83
2020-07-25 20:00:00 19.9 10 Norte 19 Nordeste 0 -- -- 80
2020-07-25 19:00:00 21.2 10 Nordeste 20 Nordeste 0 -- -- 77
2020-07-25 18:00:00 22.6 13 Nordeste 21 Nordeste 0 -- -- 71
2020-07-25 17:00:00 22.9 11 Nordeste 20 Nordeste 0 -- -- 71
2020-07-25 16:00:00 23.4 14 Nordeste 20 Nordeste 0 -- -- 69
2020-07-25 15:00:00 23.7 10 Nordeste 20 Nordeste 0 -- -- 68
2020-07-25 14:00:00 24.4 11 Nordeste 19 Este 0 -- -- 64
2020-07-25 13:00:00 25.1 11 Este 18 Nordeste 0 -- -- 63
2020-07-25 12:00:00 24 11 Nordeste 19 Nordeste 0 -- -- 67
2020-07-25 11:00:00 23.7 9 Este 17 Este 0 -- -- 68
2020-07-25 10:00:00 22 6 Este 14 Este 0 -- -- 73
2020-07-25 09:00:00 18.1 6 Nordeste 13 Nordeste 0 -- -- 88
2020-07-25 08:00:00 17.3 2 Oeste 12 Norte 0 -- -- 90
2020-07-25 07:00:00 17 8 Oeste 12 Oeste 0 -- -- 90
2020-07-25 06:00:00 16.7 7 Oeste 13 Oeste 0 -- -- 91
2020-07-25 05:00:00 16.8 7 Oeste 13 Sudoeste 0 -- -- 90
2020-07-25 04:00:00 17.4 8 Oeste 14 Sudoeste 0 -- -- 89
2020-07-25 03:00:00 17.6 6 Noroeste 12 Oeste 0 -- -- 91
2020-07-25 02:00:00 17.8 6 Oeste 12 Sudoeste 0 -- -- 89
2020-07-25 01:00:00 17.6 6 Oeste 12 Sudoeste 0 -- -- 90
2020-07-25 00:00:00 17.5 8 Oeste 11 Oeste 0 -- -- 91
2020-07-24 23:00:00 17.9 2 Noroeste 10 Sudoeste 0 -- -- 88
2020-07-24 22:00:00 18.5 5 Oeste 10 Oeste 0 -- -- 85
2020-07-24 21:00:00 19.3 5 Norte 14 Nordeste 0 -- -- 83
2020-07-24 20:00:00 20.6 9 Nordeste 15 Nordeste 0 -- -- 77
2020-07-24 19:00:00 22.2 10 Nordeste 18 Nordeste 0 -- -- 71
2020-07-24 18:00:00 22.9 10 Nordeste 20 Nordeste 0 -- -- 69
2020-07-24 17:00:00 23.6 13 Nordeste 23 Nordeste 0 -- -- 68
2020-07-24 16:00:00 24.5 11 Nordeste 21 Nordeste 0 -- -- 64
2020-07-24 15:00:00 24 14 Nordeste 23 Nordeste 0 -- -- 66
2020-07-24 14:00:00 23.4 13 Nordeste 26 Este 0 -- -- 68
2020-07-24 13:00:00 23.1 11 Nordeste 20 Este 0 -- -- 70
2020-07-24 12:00:00 22.4 12 Nordeste 18 Nordeste 0 -- -- 71
2020-07-24 11:00:00 20.6 12 Nordeste 17 Norte 0 -- -- 78
2020-07-24 10:00:00 19.3 6 Nordeste 14 Nordeste 0 -- -- 81
2020-07-24 09:00:00 18.4 5 Oeste 15 Sudoeste 0 -- -- 85
2020-07-24 08:00:00 18.2 3 Sudoeste 13 Sur 0 -- -- 85
2020-07-24 07:00:00 18.1 4 Nordeste 13 Sudoeste 0 -- -- 86
2020-07-24 06:00:00 18.1 7 Sudoeste 15 Nordeste 0 -- -- 87
2020-07-24 05:00:00 18.1 6 Sudoeste 17 Nordeste 0 -- -- 87
2020-07-24 04:00:00 18.2 3 Noroeste 15 Sudoeste 0 -- -- 87
2020-07-24 03:00:00 18.3 6 Sudoeste 13 Sudoeste 0 -- -- 86
2020-07-24 02:00:00 18.5 9 Sudoeste 16 Sudoeste 0 -- -- 87
2020-07-24 01:00:00 18.6 0 Calma 19 Sudoeste 0 -- -- 85
2020-07-24 00:00:00 18.8 6 Este 12 Sudoeste 0 -- -- 85
2020-07-23 23:00:00 18.8 8 Sudoeste 14 Nordeste 0 -- -- 85
2020-07-23 22:00:00 18.9 3 Nordeste 16 Nordeste 0 -- -- 84
2020-07-23 21:00:00 19.2 6 Nordeste 16 Nordeste 0 -- -- 82
2020-07-23 20:00:00 19.9 9 Nordeste 18 Nordeste 0 -- -- 80
2020-07-23 19:00:00 20.8 5 Este 17 Nordeste 0 -- -- 78
2020-07-23 18:00:00 22.7 13 Nordeste 21 Este 0 -- -- 71
2020-07-23 17:00:00 23 14 Nordeste 23 Este 0 -- -- 70
2020-07-23 16:00:00 23.4 13 Nordeste 21 Este 0 -- -- 68
2020-07-23 15:00:00 23.1 11 Nordeste 20 Nordeste 0 -- -- 70
2020-07-23 14:00:00 23 13 Nordeste 22 Este 0 -- -- 72
2020-07-23 13:00:00 23.6 10 Este 21 Este 0 -- -- 68
2020-07-23 12:00:00 22.9 13 Este 21 Este 0 -- -- 71
2020-07-23 11:00:00 20.2 5 Este 17 Este 0 -- -- 80
2020-07-23 10:00:00 19.5 5 Este 11 Este 0 -- -- 83
2020-07-23 09:00:00 18.7 4 Sudoeste 10 Sudoeste 0 -- -- 87
2020-07-23 08:00:00 18.1 8 Sudoeste 12 Sudoeste 0 -- -- 90
2020-07-23 07:00:00 18 5 Sudoeste 11 Sudoeste 0 -- -- 90
2020-07-23 06:00:00 18.1 3 Nordeste 11 Sudoeste 0 -- -- 90
2020-07-23 05:00:00 18 5 Sudoeste 11 Sudoeste 0 -- -- 91
2020-07-23 04:00:00 18.1 4 Sudoeste 13 Sudoeste 0 -- -- 90
2020-07-23 03:00:00 17.9 9 Sudoeste 13 Sudoeste 0 -- -- 90
2020-07-23 02:00:00 18.4 6 Sudeste 12 Sudoeste 0 -- -- 88
2020-07-23 01:00:00 18.2 9 Sudoeste 13 Sudoeste 0 -- -- 89
2020-07-23 00:00:00 18.7 7 Sudoeste 15 Sudoeste 0 -- -- 88
2020-07-22 23:00:00 18.9 8 Sudoeste 15 Sur 0 -- -- 87
2020-07-22 22:00:00 19.7 5 Sur 13 Este 0 -- -- 84
2020-07-22 21:00:00 20 6 Sudeste 15 Este 0 -- -- 82
2020-07-22 20:00:00 20.6 7 Sudeste 26 Este 0 -- -- 79
2020-07-22 19:00:00 21.5 13 Este 22 Este 0 -- -- 80
2020-07-22 18:00:00 22.3 12 Este 19 Este 0 -- -- 75
2020-07-22 17:00:00 22.6 14 Este 28 Este 0 -- -- 73
2020-07-22 16:00:00 22.9 16 Este 26 Este 0 -- -- 73
2020-07-22 15:00:00 23.1 17 Este 26 Este 0 -- -- 74
2020-07-22 14:00:00 25.1 18 Este 24 Este 0 -- -- 66
2020-07-22 13:00:00 24.6 16 Este 26 Este 0 -- -- 68
2020-07-22 12:00:00 21.5 12 Este 22 Este 0 -- -- 82
2020-07-22 11:00:00 20.5 11 Sur 21 Sur 0 -- -- 77
2020-07-22 10:00:00 20 7 Sur 21 Este 0 -- -- 78
2020-07-22 09:00:00 19.3 8 Sudeste 19 Sudoeste 0 -- -- 83
2020-07-22 08:00:00 18.9 12 Sudoeste 17 Sudoeste 0 -- -- 81
2020-07-22 07:00:00 19 5 Sudeste 13 Este 0 -- -- 81
2020-07-22 06:00:00 19.1 5 Sur 17 Sudoeste 0 -- -- 83
2020-07-22 05:00:00 19.1 10 Este 15 Este 0 -- -- 84
2020-07-22 04:00:00 19.3 6 Sur 16 Sudoeste 0 -- -- 81
2020-07-22 03:00:00 19.4 14 Sudoeste 19 Sudoeste 0 -- -- 82
2020-07-22 02:00:00 19.5 6 Este 14 Este 0 -- -- 79
2020-07-22 01:00:00 19.6 4 Sur 16 Este 0 -- -- 81
2020-07-22 00:00:00 19.6 7 Este 18 Este 0 -- -- 80
2020-07-21 23:00:00 19.8 10 Este 15 Este 0 -- -- 86
2020-07-21 22:00:00 19.8 7 Sur 17 Sudoeste 0 -- -- 79
2020-07-21 21:00:00 20 6 Este 22 Este 0 -- -- 76
2020-07-21 20:00:00 20.5 10 Sudeste 21 Este 0 -- -- 74
2020-07-21 19:00:00 21.5 10 Nordeste 22 Norte 0 -- -- 76
2020-07-21 18:00:00 23.7 14 Este 22 Este 0 -- -- 62
2020-07-21 17:00:00 24.1 11 Este 24 Este 0 -- -- 59
2020-07-21 16:00:00 24.3 13 Este 27 Este 0 -- -- 60
2020-07-21 15:00:00 24.6 16 Este 26 Este 0 -- -- 59
2020-07-21 14:00:00 23.9 17 Este 24 Este 0 -- -- 65
2020-07-21 13:00:00 21.8 10 Este 17 Este 0 -- -- 72
2020-07-21 12:00:00 21.4 8 Este 27 Este 0 -- -- 67
2020-07-21 11:00:00 20 5 Sur 19 Este 0 -- -- 73
2020-07-21 10:00:00 19.3 7 Sudeste 14 Sur 0 -- -- 77
2020-07-21 09:00:00 18.8 5 Sudeste 15 Este 0 -- -- 79
2020-07-21 08:00:00 18.6 6 Sudoeste 13 Sur 0 -- -- 80
2020-07-21 07:00:00 18.5 5 Sur 15 Sudoeste 0 -- -- 80
2020-07-21 06:00:00 18.6 5 Oeste 11 Oeste 0 -- -- 81
2020-07-21 05:00:00 18.5 2 Norte 9 Nordeste 0 -- -- 82
2020-07-21 04:00:00 18.5 3 Norte 9 Nordeste 0 -- -- 82
2020-07-21 03:00:00 18.5 4 Norte 15 Sudoeste 0 -- -- 83
2020-07-21 02:00:00 18.6 4 Sudoeste 23 Sudoeste 0 -- -- 84
2020-07-21 01:00:00 18.6 9 Sudoeste 14 Sudoeste 0 -- -- 85
2020-07-21 00:00:00 19.1 2 Oeste 14 Sudeste 0 -- -- 85
2020-07-20 23:00:00 19.3 3 Noroeste 18 Sudoeste 0 -- -- 83
2020-07-20 22:00:00 19.4 8 Noroeste 19 Oeste 0 -- -- 77
2020-07-20 21:00:00 20.2 4 Norte 16 Este 0 -- -- 79
2020-07-20 20:00:00 21.1 9 Este 19 Este 0 -- -- 74
2020-07-20 19:00:00 22.5 6 Oeste 21 Norte 0 -- -- 71
2020-07-20 18:00:00 23.5 8 Nordeste 24 Este 0 -- -- 64
2020-07-20 17:00:00 22.3 7 Norte 25 Este 0 -- -- 70
2020-07-20 16:00:00 23.6 13 Nordeste 22 Nordeste 0 -- -- 69
2020-07-20 15:00:00 23.7 9 Nordeste 24 Este 0 -- -- 67
2020-07-20 14:00:00 23.4 11 Este 23 Este 0 -- -- 69
2020-07-20 13:00:00 24.3 12 Este 20 Nordeste 0 -- -- 67
2020-07-20 12:00:00 23.8 10 Este 19 Nordeste 0 -- -- 68
2020-07-20 11:00:00 21.5 7 Norte 13 Nordeste 0 -- -- 75
2020-07-20 10:00:00 21.3 6 Nordeste 13 Nordeste 0 -- -- 77
2020-07-20 09:00:00 19.3 6 Nordeste 12 Nordeste 0 -- -- 87
2020-07-20 08:00:00 19.1 6 Norte 12 Norte 0 -- -- 91
2020-07-20 07:00:00 19.1 7 Noroeste 14 Norte 0 -- -- 90
2020-07-20 06:00:00 19.2 5 Norte 15 Norte 0 -- -- 92
2020-07-20 05:00:00 19.2 7 Norte 18 Norte 0 -- -- 92
2020-07-20 04:00:00 19.1 12 Norte 22 Norte 0 -- -- 92
2020-07-20 03:00:00 19.4 7 Norte 17 Norte 0 -- -- 92
2020-07-20 02:00:00 19.4 7 Norte 17 Norte 0 -- -- 92
2020-07-20 01:00:00 19.3 6 Norte 13 Noroeste 0 -- -- 92
2020-07-20 00:00:00 19.2 4 Norte 9 Oeste 0 -- -- 85
2020-07-19 23:00:00 19.8 5 Noroeste 12 Noroeste 0 -- -- 76
2020-07-19 22:00:00 19.8 4 Noroeste 15 Norte 0 -- -- 90
2020-07-19 21:00:00 20.3 8 Norte 17 Norte 0 -- -- 87
2020-07-19 20:00:00 21.8 8 Norte 16 Nordeste 0 -- -- 78
2020-07-19 19:00:00 22.8 8 Nordeste 18 Nordeste 0 -- -- 81
2020-07-19 18:00:00 24 10 Nordeste 18 Norte 0 -- -- 76
2020-07-19 17:00:00 25 12 Nordeste 18 Norte 0 -- -- 73
2020-07-19 16:00:00 26.5 9 Nordeste 15 Nordeste 0 -- -- 65
2020-07-19 15:00:00 27.3 7 Este 17 Nordeste 0 -- -- 57
2020-07-19 14:00:00 27.7 10 Nordeste 17 Este 0 -- -- 57
2020-07-19 13:00:00 27.9 11 Este 18 Este 0 -- -- 51
2020-07-19 12:00:00 26.2 8 Nordeste 13 Este 0 -- -- 65
2020-07-19 11:00:00 25.3 5 Este 12 Este 0 -- -- 71
2020-07-19 10:00:00 26.3 6 Este 10 Este 0 -- -- 58
2020-07-19 09:00:00 23.6 5 Sudeste 8 Sudeste 0 -- -- 44
2020-07-19 08:00:00 21.4 6 Sudoeste 9 Sudoeste 0 -- -- 54
2020-07-19 07:00:00 21.2 5 Sudoeste 12 Sudoeste 0 -- -- 51
2020-07-19 06:00:00 21.6 9 Sudoeste 12 Sudoeste 0 -- -- 49
2020-07-19 05:00:00 21.4 5 Sudoeste 10 Sudoeste 0 -- -- 52
2020-07-19 04:00:00 21.6 6 Sudoeste 10 Sudoeste 0 -- -- 52
2020-07-19 03:00:00 20.9 4 Sudoeste 8 Sudoeste 0 -- -- 60
2020-07-19 02:00:00 20.4 4 Sudoeste 8 Sudoeste 0 -- -- 67
2020-07-19 01:00:00 20.5 5 Sudoeste 10 Sur 0 -- -- 65
2020-07-19 00:00:00 19.4 4 Sudoeste 9 Sudoeste 0 -- -- 81
2020-07-18 23:00:00 19.7 5 Sudoeste 7 Sudoeste 0 -- -- 93
2020-07-18 22:00:00 19.9 3 Oeste 8 Noroeste 0 -- -- 84
2020-07-18 21:00:00 20.5 4 Norte 8 Norte 0 -- -- 85
2020-07-18 20:00:00 21.2 5 Norte 14 Norte 0 -- -- 86
2020-07-18 19:00:00 22.2 7 Nordeste 13 Norte 0 -- -- 85
2020-07-18 18:00:00 22.7 7 Nordeste 14 Nordeste 0 -- -- 83
2020-07-18 17:00:00 23.5 9 Nordeste 16 Nordeste 0 -- -- 80
2020-07-18 16:00:00 24.5 9 Nordeste 17 Norte 0 -- -- 76
2020-07-18 15:00:00 24.6 10 Nordeste 17 Nordeste 0 -- -- 75
2020-07-18 14:00:00 25.3 8 Nordeste 12 Nordeste 0 -- -- 71
2020-07-18 13:00:00 25.1 8 Nordeste 12 Nordeste 0 -- -- 73
2020-07-18 12:00:00 24.5 7 Nordeste 12 Nordeste 0 -- -- 74
2020-07-18 11:00:00 24.3 6 Nordeste 9 Nordeste 0 -- -- 75
2020-07-18 10:00:00 23.4 5 Nordeste 10 Este 0 -- -- 79
2020-07-18 09:00:00 19.5 4 Este 8 Este 0 -- -- 93
2020-07-18 08:00:00 18.4 0 Calma 5 Sudeste 0 -- -- 94
2020-07-18 07:00:00 18.2 4 Sur 6 Sudeste 0 -- -- 92
2020-07-18 06:00:00 18.7 3 Sur 6 Sudoeste 0 -- -- 92
2020-07-18 05:00:00 18.5 3 Noroeste 6 Sudoeste 0 -- -- 82
2020-07-18 04:00:00 19 0 Calma 4 Este 0 -- -- 93
2020-07-18 03:00:00 19 0 Calma 6 Norte 0 -- -- 91
2020-07-18 02:00:00 19 3 Norte 4 Norte 0 -- -- 82
2020-07-18 01:00:00 19.4 2 Noroeste 8 Noroeste 0 -- -- 68
2020-07-18 00:00:00 19.4 3 Oeste 8 Sudoeste 0 -- -- 67
2020-07-17 23:00:00 19 2 Norte 8 Norte 0 -- -- 92
2020-07-17 22:00:00 19.2 6 Norte 9 Nordeste 0 -- -- 91
2020-07-17 21:00:00 19.6 5 Norte 10 Nordeste 0 -- -- 90
2020-07-17 20:00:00 20.1 8 Nordeste 12 Nordeste 0 -- -- 86
2020-07-17 19:00:00 20.8 7 Nordeste 14 Nordeste 0 -- -- 83
2020-07-17 18:00:00 21.5 9 Nordeste 15 Norte 0 -- -- 80
2020-07-17 17:00:00 22.5 11 Nordeste 22 Nordeste 0 -- -- 75
2020-07-17 16:00:00 23.2 13 Nordeste 22 Norte 0 -- -- 73
2020-07-17 15:00:00 23.5 13 Nordeste 24 Norte 0 -- -- 71
2020-07-17 14:00:00 23 13 Norte 21 Nordeste 0 -- -- 72
2020-07-17 13:00:00 23.2 11 Nordeste 18 Norte 0 -- -- 72
2020-07-17 12:00:00 22.6 10 Nordeste 17 Norte 0 -- -- 74
2020-07-17 11:00:00 22.2 10 Nordeste 16 Nordeste 0 -- -- 75
2020-07-17 10:00:00 20.3 7 Nordeste 13 Nordeste 0 -- -- 83
2020-07-17 09:00:00 18.8 3 Noroeste 10 Sur 0 -- -- 88
2020-07-17 08:00:00 18.3 3 Oeste 10 Oeste 0 -- -- 90
2020-07-17 07:00:00 18.2 6 Sudoeste 11 Sudoeste 0 -- -- 90
2020-07-17 06:00:00 18 6 Sudoeste 11 Oeste 0 -- -- 90
2020-07-17 05:00:00 18 3 Oeste 10 Sudoeste 0 -- -- 90
2020-07-17 04:00:00 18 3 Sudoeste 7 Sudoeste 0 -- -- 90
2020-07-17 03:00:00 17.8 4 Sudoeste 10 Sudoeste 0 -- -- 91
2020-07-17 02:00:00 18.1 10 Sudoeste 14 Sudoeste 0 -- -- 88
2020-07-17 01:00:00 18.1 3 Sur 12 Sudoeste 0 -- -- 90
2020-07-17 00:00:00 18 4 Oeste 9 Sudoeste 0 -- -- 90
2020-07-16 23:00:00 18.1 5 Oeste 9 Este 0 -- -- 85
2020-07-16 22:00:00 18.6 7 Sudoeste 14 Oeste 0 -- -- 84
2020-07-16 21:00:00 19.2 6 Nordeste 11 Nordeste 0 -- -- 84
2020-07-16 20:00:00 20.5 8 Nordeste 14 Este 0 -- -- 78
2020-07-16 19:00:00 21.9 9 Este 17 Este 0 -- -- 73
2020-07-16 18:00:00 22.4 9 Este 21 Nordeste 0 -- -- 71
2020-07-16 17:00:00 22.8 11 Este 21 Nordeste 0 -- -- 70
2020-07-16 16:00:00 23.4 12 Nordeste 22 Nordeste 0 -- -- 68
2020-07-16 15:00:00 22.7 11 Nordeste 21 Norte 0 -- -- 70
2020-07-16 14:00:00 23.1 12 Nordeste 20 Nordeste 0 -- -- 69
2020-07-16 13:00:00 22.2 11 Nordeste 19 Nordeste 0 -- -- 71
2020-07-16 12:00:00 22.7 11 Este 20 Este 0 -- -- 69
2020-07-16 11:00:00 22 11 Este 18 Este 0 -- -- 71
2020-07-16 10:00:00 19.5 11 Este 15 Sudoeste 0 -- -- 80
2020-07-16 09:00:00 18.6 6 Sur 17 Este 0 -- -- 83
2020-07-16 08:00:00 18.2 4 Sudeste 15 Sudoeste 0 -- -- 86
2020-07-16 07:00:00 18 6 Sur 14 Sudoeste 0 -- -- 86
2020-07-16 06:00:00 18 8 Sudoeste 17 Sudoeste 0 -- -- 86
2020-07-16 05:00:00 18.1 4 Este 14 Sudoeste 0 -- -- 86
2020-07-16 04:00:00 18.1 8 Sudeste 14 Sudeste 0 -- -- 86
2020-07-16 03:00:00 18.3 4 Este 21 Este 0 -- -- 86
2020-07-16 02:00:00 18.4 4 Sudoeste 13 Sudoeste 0 -- -- 87
2020-07-16 01:00:00 18.4 9 Sudoeste 13 Sudoeste 0 -- -- 85
2020-07-16 00:00:00 18.6 5 Sudeste 14 Este 0 -- -- 83
2020-07-15 23:00:00 18.9 6 Este 17 Este 0 -- -- 83
2020-07-15 22:00:00 19.1 5 Sudeste 18 Sudoeste 0 -- -- 83
2020-07-15 21:00:00 19.5 13 Este 26 Este 0 -- -- 80
2020-07-15 20:00:00 20.4 13 Nordeste 21 Nordeste 0 -- -- 78
2020-07-15 19:00:00 22 9 Este 23 Este 0 -- -- 72
2020-07-15 18:00:00 22.5 12 Este 21 Este 0 -- -- 69
2020-07-15 17:00:00 23.3 12 Nordeste 22 Nordeste 0 -- -- 71
2020-07-15 16:00:00 22.7 17 Nordeste 25 Este 0 -- -- 69
2020-07-15 15:00:00 22.8 12 Nordeste 27 Nordeste 0 -- -- 70
2020-07-15 14:00:00 24.6 16 Nordeste 23 Nordeste 0 -- -- 64
2020-07-15 13:00:00 22.4 13 Nordeste 22 Este 0 -- -- 73
2020-07-15 12:00:00 23.4 13 Nordeste 18 Nordeste 0 -- -- 68
2020-07-15 11:00:00 20.8 10 Nordeste 15 Nordeste 0 -- -- 79
2020-07-15 10:00:00 19.9 5 Nordeste 13 Nordeste 0 -- -- 83
2020-07-15 09:00:00 18.8 5 Noroeste 14 Oeste 0 -- -- 87
2020-07-15 08:00:00 17.9 7 Oeste 13 Noroeste 0 -- -- 85
2020-07-15 07:00:00 18.3 6 Oeste 13 Oeste 0 -- -- 84
2020-07-15 06:00:00 18.4 5 Oeste 13 Sudoeste 0 -- -- 85
2020-07-15 05:00:00 18.4 5 Oeste 14 Oeste 0 -- -- 87
2020-07-15 04:00:00 18.3 8 Oeste 17 Noroeste 0 -- -- 87
2020-07-15 03:00:00 18.3 6 Noroeste 19 Noroeste 0 -- -- 87
2020-07-15 02:00:00 18.4 8 Norte 21 Norte 0 -- -- 88
2020-07-15 01:00:00 18.5 6 Noroeste 20 Norte 0 -- -- 91
2020-07-15 00:00:00 18.6 10 Noroeste 21 Norte 0 -- -- 90